Aérodrome :
LOGIN :

S'inscrire | Disclaimer

   EN    FR    IT 

 










Légende :    VFR   VFR Marginal   IFR   IFR Intensif   IFR Très Intensif
Visi : 
Plafond : 
>= 8 km
>= 3000ft
5 à 8 km
1000 à 3000 ft
1500m à 5 km
500 à 1000 ft
800 à 1500m
200 à 500 ft
< 800m
< 200 ft
Symboles :   Orages  Brouillard  Fortes neiges  Fortes précipitations  Vent > 20 kt
SIGMETs :   Divers  Orages  Givrage  Turbulence  Onde Orograph.  Cendres Volcan.






- Altitude de l'aérodrome : 1079 ft


ETIK - Illesheim Air Base

DERNIER METAR :
  • 021956Z AUTO 23004KT 9999 CLR 04/M05 A2985 RMK AO2 SLP122 T00411054 $

METARs EXPIRÉS :
  • 021856Z AUTO 24004KT 9999 CLR 05/M05 A2984 RMK AO2 SLP121 T00521052 $
  • 021756Z AUTO 24008KT 9999 CLR 10/M06 A2982 RMK AO2 SLP113 T00951060 10134 20077 55002 $
  • 021656Z AUTO 26009KT 9999 CLR 11/M06 A2982 RMK AO2 SLP114 T01131061

TAF TAF ETIK
Valide du 02 à 14h jusqu'au 03 à 20h UTC


021357Z 0214/0320 27006KT 9999 SKC QNH2982INS
BECMG 0220/0221 25006KT 9999 SCT040 QNH2985INS
BECMG 0305/0306 26009KT 9999 SCT020 BKN030 620306 QNH2991INS
BECMG 0308/0309 26012G18KT 8000 -SHRA OVC015 QNH2998INS
TEMPO 0309/0312 BKN010 TX13/0214Z TN01/0306Z



MET'MAP, la Météo Aéronautique d'un coup d'oeil ! - Copyright ORBIFLY Décembre 2007 - Disclaimer

ORBIFLY MET'MAP TEAM :

Programmation & Développement : Alexandra Zaïnal
Sur une idée originale de : Baudouin d'Aumeries
Assistance à la programmation : Marc-Olivier Méhu
Soutien technique & logistique : Manuel Goepfert

Contact : metmap@orbifly.com




SOURCES & CREDITS :

   NOAA